• Join FlightAware (Why Join?)
  • Login
  • US Flag 
11:38PM EDT


 

Airport Tracker/Info


-or-


 

Live Flight TrackerFlight Track Log ✈ N960DL ✈ 25-Jul-2013 ✈ KATL - KBUF

Flight Track Log - Related Links

Times and Time Zones

All times are in EDT time to prevent confusion due to time zone crossing. See the N960DL flight status page for this flight to view local times or setup timezone preferences in your user account.

Time Position Orientation Groundspeed Altitude Reporting Facility
EDT Latitude Longitude Course Direction KTS MPH feet Rate Location/Type
03:24PM 33.6517 -84.4806 North 446 513 2,500  Level Atlanta Center
03:25PM 33.6825 -84.5631 294° West 372 428 4,800 2,520 Climbing Atlanta Center
03:26PM 33.8121 -84.1667 North  Level FlightAware Approximate
03:26PM 33.7450 -84.5908 340° North 281 323 7,600  Level Atlanta Center
03:27PM 33.9049 -84.2382 320° Northwest  Level FlightAware Approximate
03:27PM 33.8286 -84.5614 16° North 295 339 10,700  Level Atlanta Center
03:28PM 34.0107 -84.2667 North  Level FlightAware Approximate
03:28PM 33.8792 -84.4717 56° Northeast 333 383 11,800  Level Atlanta Center
03:29PM 34.1249 -84.2667 North  Level FlightAware Approximate
03:29PM 33.9608 -84.3919 39° Northeast 391 450 13,500  Level Atlanta Center
03:30PM 34.2392 -84.2667 North  Level FlightAware Approximate
03:30PM 34.0653 -84.3572 15° North 360 414 17,400  Level Atlanta Center
03:31PM 34.1697 -84.3200 16° North 368 423 19,600 1,680 Climbing Atlanta Center
03:32PM 34.2742 -84.2903 13° North 385 443 20,800 1,200 Climbing Atlanta Center
03:33PM 34.3931 -84.2603 12° North 409 471 22,100 1,500 Climbing Atlanta Center
03:34PM 34.5119 -84.2328 11° North 426 490 23,800 1,620 Climbing Atlanta Center
03:35PM 34.6331 -84.2028 12° North 438 504 25,400 1,560 Climbing Atlanta Center
03:36PM 34.7522 -84.1803 North 438 504 27,000 1,740 Climbing Atlanta Center
03:37PM 34.8711 -84.1503 12° North 438 504 28,900 1,860 Climbing Atlanta Center
03:38PM 34.9881 -84.1225 11° North 432 497 30,800 1,320 Climbing Atlanta Center
03:39PM 35.1028 -84.0922 12° North 420 483 31,600 1,140 Climbing Atlanta Center
03:40PM 35.2197 -84.0642 11° North 420 483 33,100 1,200 Climbing Atlanta Center
03:41PM 35.3303 -84.0336 13° North 410 472 34,000 420 Climbing Atlanta Center
03:42PM 35.4367 -84.0081 11° North 405 466 34,000  Level Atlanta Center
03:43PM 35.5450 -83.9825 11° North 400 460 34,100 240 Climbing Atlanta Center
03:44PM 35.6536 -83.9544 12° North 395 455 34,500 420 Climbing Atlanta Center
03:45PM 35.7619 -83.9286 11° North 395 455 35,000 240 Climbing Atlanta Center
03:46PM 35.8683 -83.9031 11° North 395 455 35,000  Level Atlanta Center
03:47PM 35.9706 -83.8514 22° Northeast 395 455 35,000  Level Atlanta Center
03:48PM 36.0747 -83.7869 27° Northeast 400 460 35,000  Level Atlanta Center
03:49PM 36.1725 -83.7250 27° Northeast 400 460 35,000  Level Atlanta Center
03:50PM 36.2328 -83.6833 29° Northeast 405 466 35,000  Level Indianapolis Center
03:51PM 36.3336 -83.6200 27° Northeast 405 466 35,000  Level Indianapolis Center
03:52PM 36.4322 -83.5561 28° Northeast 402 463 35,000  Level Indianapolis Center
03:53PM 36.5414 -83.4861 27° Northeast 404 465 35,000  Level Indianapolis Center
03:54PM 36.6422 -83.4217 27° Northeast 403 464 35,000  Level Indianapolis Center
03:55PM 36.7425 -83.3569 27° Northeast 401 461 35,000  Level Indianapolis Center
03:56PM 36.8444 -83.2928 27° Northeast 404 465 35,000  Level Indianapolis Center
03:57PM 36.9475 -83.2272 27° Northeast 412 474 35,000  Level Indianapolis Center
03:58PM 37.0514 -83.1606 27° Northeast 413 475 35,000  Level Indianapolis Center
03:59PM 37.1556 -83.0944 27° Northeast 416 479 35,000  Level Indianapolis Center
04:00PM 37.2783 -83.0333 22° Northeast 404 465 35,000  Level Indianapolis Center
04:01PM 37.3833 -82.9833 21° North 401 461 35,000  Level Indianapolis Center
04:02PM 37.4903 -82.9347 20° North 407 468 35,000  Level Indianapolis Center
04:03PM 37.5953 -82.8858 20° North 402 463 35,000  Level Indianapolis Center
04:04PM 37.7006 -82.8358 21° North 402 463 35,000  Level Indianapolis Center
04:05PM 37.7953 -82.7550 34° Northeast 409 471 35,000  Level Indianapolis Center
04:06PM 37.9069 -82.6650 32° Northeast 407 468 35,000  Level Indianapolis Center
04:07PM 38.0136 -82.6219 18° North 402 463 35,000  Level Indianapolis Center
04:08PM 38.1142 -82.5522 29° Northeast 406 467 35,000  Level Indianapolis Center
04:09PM 38.2167 -82.4772 30° Northeast 406 467 35,000  Level Indianapolis Center
04:10PM 38.3161 -82.4075 29° Northeast 408 470 35,000  Level Indianapolis Center
04:12PM 38.4153 -82.3375 29° Northeast 406 467 35,000  Level Indianapolis Center
04:13PM 38.5156 -82.2664 29° Northeast 408 470 35,000  Level Indianapolis Center
04:14PM 38.6158 -82.1978 28° Northeast 407 468 35,000  Level Indianapolis Center
04:15PM 38.7161 -82.1247 30° Northeast 411 473 35,000  Level Indianapolis Center
04:16PM 38.8367 -82.0389 29° Northeast 410 472 35,000  Level Indianapolis Center
04:17PM 38.9381 -81.9667 29° Northeast 410 472 35,000  Level Indianapolis Center
04:18PM 39.0397 -81.8964 28° Northeast 412 474 35,000  Level Indianapolis Center
04:19PM 39.1417 -81.8261 28° Northeast 412 474 35,000  Level Indianapolis Center
04:20PM 39.2461 -81.7508 29° Northeast 422 486 35,000  Level Indianapolis Center
04:21PM 39.3492 -81.6781 29° Northeast 422 486 35,000  Level Indianapolis Center
04:22PM 39.4514 -81.6031 30° Northeast 421 484 35,000  Level Indianapolis Center
04:23PM 39.5744 -81.5131 29° Northeast 421 484 35,000  Level Indianapolis Center
04:24PM 39.6750 -81.4389 30° Northeast 416 479 35,000  Level Indianapolis Center
04:25PM 39.7767 -81.3642 29° Northeast 419 482 35,000 -240 Level Indianapolis Center
04:26PM 39.8767 -81.2903 30° Northeast 414 476 34,600 -900 Descending Indianapolis Center
04:27PM 39.9775 -81.2144 30° Northeast 404 465 33,200 -780 Descending Indianapolis Center
04:28PM 40.0736 -81.1433 30° Northeast 395 455 33,000 -120 Descending Indianapolis Center
04:29PM 40.1700 -81.0708 30° Northeast 397 457 33,000 -60 Level Indianapolis Center
04:30PM 40.2706 -80.9953 30° Northeast 412 474 32,900 -1,020 Descending Indianapolis Center
04:31PM 40.3847 -80.9092 30° Northeast 404 465 31,000 -960 Descending Indianapolis Center
04:32PM 40.4828 -80.8353 30° Northeast 405 466 31,000  Level Indianapolis Center
04:33PM 40.5847 -80.7572 30° Northeast 416 479 31,000  Level Indianapolis Center
04:34PM 40.7031 -80.6708 29° Northeast 400 460 31,000  Level Cleveland Center
04:35PM 40.8031 -80.5914 31° Northeast 405 466 31,000  Level Cleveland Center
04:36PM 40.9053 -80.5144 30° Northeast 413 475 31,000 -780 Level Cleveland Center
04:37PM 41.0136 -80.4619 20° North 413 475 29,500 -1,560 Descending Cleveland Center
04:38PM 41.1156 -80.4094 21° North 402 463 27,900 -1,800 Descending Cleveland Center
04:39PM 41.2133 -80.3375 29° Northeast 395 455 26,000 -1,560 Descending Cleveland Center
04:40PM 41.3111 -80.2569 32° Northeast 395 455 24,800 -1,080 Descending Cleveland Center
04:41PM 41.4069 -80.1761 32° Northeast 401 461 23,900 -420 Descending Cleveland Center
04:42PM 41.5003 -80.1008 31° Northeast 406 467 24,000  Climbing Cleveland Center
04:43PM 41.5981 -80.0250 30° Northeast 406 467 24,000  Level Cleveland Center
04:44PM 41.7017 -79.9378 32° Northeast 406 467 24,000 -180 Level Cleveland Center
04:45PM 41.7992 -79.8617 30° Northeast 401 461 23,700 -900 Descending Cleveland Center
04:46PM 41.8906 -79.7797 34° Northeast 401 461 22,200 -1,500 Descending Cleveland Center
04:47PM 41.9836 -79.7033 31° Northeast 394 453 20,700 -1,500 Descending Cleveland Center
04:48PM 42.0728 -79.6264 33° Northeast 388 447 19,300 -1,500 Descending Cleveland Center
04:49PM 42.1617 -79.5525 32° Northeast 382 440 17,800 -1,560 Descending Cleveland Center
04:50PM 42.2486 -79.4808 31° Northeast 382 440 16,200 -1,860 Descending Cleveland Center
04:51PM 42.3333 -79.4092 32° Northeast 376 433 14,100 -1,920 Descending Cleveland Center
04:52PM 42.4139 -79.3317 35° Northeast 363 418 12,400 -1,320 Descending Cleveland Center
04:53PM 42.4900 -79.2486 39° Northeast 352 405 11,500 -960 Descending Cleveland Center
04:54PM 42.5414 -79.1911 39° Northeast 327 376 10,500 -1,380 Descending Cleveland Center
04:55PM 42.6175 -79.1133 37° Northeast 292 336 8,800 -1,560 Descending Cleveland Center
04:56PM 42.6772 -79.0442 40° Northeast 286 329 7,400 -1,200 Descending Cleveland Center
04:57PM 42.7264 -78.9892 39° Northeast 273 314 6,500 -1,140 Descending Cleveland Center
04:58PM 42.7736 -78.9342 41° Northeast 223 257 5,200 -1,320 Descending Cleveland Center